createdAt,value
2022-10-07T00:01:09.129Z,80.74
2022-10-07T00:03:36.418Z,80.54
2022-10-07T00:06:16.003Z,80.85
2022-10-07T00:08:46.296Z,81.06
2022-10-07T00:11:17.098Z,81.47
2022-10-07T00:13:46.327Z,81.16
2022-10-07T00:16:21.049Z,80.21
2022-10-07T00:18:48.540Z,79.60
2022-10-07T00:21:17.358Z,80.46
2022-10-07T00:23:45.892Z,82.01
2022-10-07T00:26:17.070Z,81.08
2022-10-07T00:28:46.637Z,81.25
2022-10-07T00:31:16.851Z,81.64
2022-10-07T00:33:44.618Z,82.06
2022-10-07T00:36:23.539Z,82.80
2022-10-07T00:39:00.978Z,83.28
2022-10-07T00:41:32.901Z,83.93
2022-10-07T00:44:23.263Z,82.94
2022-10-07T00:46:50.700Z,83.04
2022-10-07T00:49:17.604Z,83.57
2022-10-07T00:51:44.785Z,84.01
2022-10-07T00:54:16.072Z,83.20
2022-10-07T00:56:47.417Z,84.14
2022-10-07T00:59:18.317Z,83.56
2022-10-07T01:01:46.019Z,83.55
2022-10-07T01:04:17.268Z,83.77
2022-10-07T01:06:47.420Z,84.83
2022-10-07T01:09:16.618Z,84.84
2022-10-07T01:12:17.462Z,84.87
2022-10-07T01:15:05.703Z,85.34
2022-10-07T01:18:09.771Z,85.37
2022-10-07T01:20:50.077Z,85.49
2022-10-07T01:23:25.820Z,85.50
2022-10-07T01:26:31.421Z,85.22
2022-10-07T01:29:10.777Z,85.88
2022-10-07T01:32:06.823Z,84.96
2022-10-07T01:34:35.569Z,85.04
2022-10-07T01:37:05.773Z,84.83
2022-10-07T01:39:46.966Z,84.25
2022-10-07T01:42:14.629Z,84.44
2022-10-07T01:44:47.397Z,84.41
2022-10-07T01:47:19.834Z,84.54
2022-10-07T01:49:49.602Z,84.30
2022-10-07T01:53:06.461Z,83.40
2022-10-07T01:55:54.734Z,83.53
2022-10-07T01:59:07.981Z,84.39
2022-10-07T02:02:09.229Z,84.72
2022-10-07T02:04:59.058Z,85.23
2022-10-07T02:07:52.286Z,86.41
2022-10-07T02:10:55.256Z,86.13
2022-10-07T02:14:11.859Z,86.13
2022-10-07T02:16:47.107Z,86.12
2022-10-07T02:19:25.925Z,85.85
2022-10-07T02:21:58.551Z,85.05
2022-10-07T02:24:32.560Z,84.81
2022-10-07T02:27:06.937Z,84.21
2022-10-07T02:29:37.176Z,83.83
2022-10-07T02:32:12.354Z,83.74
2022-10-07T02:34:43.854Z,83.17
2022-10-07T02:37:18.451Z,85.52
2022-10-07T02:39:46.898Z,86.00
2022-10-07T02:42:47.980Z,84.56
2022-10-07T02:45:26.827Z,84.33
2022-10-07T02:48:05.031Z,84.68
2022-10-07T02:50:42.358Z,84.70
2022-10-07T02:53:14.080Z,84.32
2022-10-07T02:55:47.393Z,84.70
2022-10-07T02:58:16.163Z,84.56
2022-10-07T03:00:50.921Z,84.10
2022-10-07T03:03:19.971Z,85.01
2022-10-07T03:05:51.892Z,84.79
2022-10-07T03:08:25.461Z,85.10
2022-10-07T03:10:54.977Z,86.10
2022-10-07T03:13:22.343Z,85.06
2022-10-07T03:15:52.187Z,85.08
2022-10-07T03:18:28.568Z,85.06
2022-10-07T03:21:00.153Z,86.18
2022-10-07T03:23:29.493Z,85.55
2022-10-07T03:26:00.617Z,86.38
2022-10-07T03:28:30.188Z,85.45
2022-10-07T03:31:10.039Z,86.25
2022-10-07T03:33:40.055Z,85.40
2022-10-07T03:36:08.932Z,86.19
2022-10-07T03:38:38.670Z,85.42
2022-10-07T03:41:06.320Z,85.79
2022-10-07T03:43:37.752Z,85.94
2022-10-07T03:46:07.301Z,86.30
2022-10-07T03:48:34.253Z,84.87
2022-10-07T03:51:03.810Z,84.82
2022-10-07T03:53:31.029Z,85.89
2022-10-07T03:55:58.130Z,85.59
2022-10-07T03:58:27.413Z,84.70
2022-10-07T04:01:11.986Z,85.40
2022-10-07T04:03:41.330Z,85.28
2022-10-07T04:06:09.547Z,85.87
2022-10-07T04:08:36.633Z,86.08
2022-10-07T04:11:04.612Z,86.00
2022-10-07T04:13:34.192Z,85.88
2022-10-07T04:16:10.068Z,85.58
2022-10-07T04:18:37.509Z,85.93
2022-10-07T04:21:09.685Z,86.39
2022-10-07T04:23:41.085Z,86.79
2022-10-07T04:26:12.170Z,85.91
2022-10-07T04:28:39.649Z,85.67
2022-10-07T04:31:12.121Z,86.70
2022-10-07T04:33:41.185Z,86.54
2022-10-07T04:36:10.813Z,86.53
2022-10-07T04:38:39.147Z,85.70
2022-10-07T04:41:07.947Z,85.34
2022-10-07T04:43:37.555Z,86.37
2022-10-07T04:46:08.330Z,86.83
2022-10-07T04:48:37.775Z,85.43
2022-10-07T04:51:08.171Z,85.38
2022-10-07T04:53:39.104Z,84.56
2022-10-07T04:56:08.813Z,85.64
2022-10-07T04:58:36.777Z,85.61
2022-10-07T05:01:09.596Z,84.60
2022-10-07T05:03:41.936Z,84.54
2022-10-07T05:06:11.838Z,83.94
2022-10-07T05:08:38.800Z,84.58
2022-10-07T05:11:05.804Z,84.98
2022-10-07T05:13:36.269Z,85.93
2022-10-07T05:16:07.569Z,85.91
2022-10-07T05:18:37.012Z,85.11
2022-10-07T05:21:11.450Z,85.22
2022-10-07T05:23:40.549Z,85.80
2022-10-07T05:26:08.197Z,85.71
2022-10-07T05:28:43.152Z,84.61
2022-10-07T05:31:13.409Z,85.30
2022-10-07T05:33:41.236Z,84.63
2022-10-07T05:36:10.041Z,86.36
2022-10-07T05:38:39.677Z,85.77
2022-10-07T05:41:15.048Z,85.95
2022-10-07T05:43:47.213Z,86.84
2022-10-07T05:46:21.862Z,85.58
2022-10-07T05:48:51.654Z,84.99
2022-10-07T05:51:20.123Z,84.82
2022-10-07T05:53:50.462Z,84.40
2022-10-07T05:56:22.354Z,81.91
2022-10-07T05:58:50.643Z,80.54
2022-10-07T06:01:22.774Z,78.98
2022-10-07T06:03:55.016Z,77.00
2022-10-07T06:06:26.809Z,76.22
2022-10-07T06:08:54.259Z,75.61
2022-10-07T06:11:40.082Z,73.60
2022-10-07T06:14:07.000Z,71.14
2022-10-07T06:16:36.046Z,70.44
2022-10-07T06:19:22.280Z,69.03
2022-10-07T06:21:50.391Z,67.77
2022-10-07T06:24:17.459Z,68.38
2022-10-07T06:26:46.792Z,67.03
2022-10-07T06:29:13.589Z,66.81
2022-10-07T06:31:42.882Z,64.98
2022-10-07T06:34:09.686Z,63.61
2022-10-07T06:36:38.980Z,63.37
2022-10-07T06:39:05.854Z,61.37
2022-10-07T06:41:37.212Z,60.25
2022-10-07T06:44:09.646Z,58.57
2022-10-07T06:46:38.637Z,57.79
2022-10-07T06:49:05.508Z,55.79
2022-10-07T06:51:37.151Z,55.45
2022-10-07T06:54:04.106Z,52.28
2022-10-07T06:56:31.050Z,51.25
2022-10-07T06:58:58.035Z,51.16
2022-10-07T07:01:26.968Z,50.88
2022-10-07T07:03:54.120Z,49.88
2022-10-07T07:06:23.872Z,51.77
2022-10-07T07:08:51.282Z,52.52
2022-10-07T07:11:37.796Z,51.04
2022-10-07T07:14:06.900Z,50.87
2022-10-07T07:16:35.515Z,49.59
2022-10-07T07:19:08.643Z,48.88
2022-10-07T07:21:40.792Z,48.91
2022-10-07T07:24:10.242Z,46.63
2022-10-07T07:26:39.435Z,46.37
2022-10-07T07:29:07.089Z,49.09
2022-10-07T07:31:37.333Z,47.54
2022-10-07T07:34:11.326Z,46.70
2022-10-07T07:36:43.571Z,44.88
2022-10-07T07:39:15.597Z,44.76
2022-10-07T07:41:50.868Z,43.38
2022-10-07T07:44:21.302Z,42.80
2022-10-07T07:46:52.040Z,40.31
2022-10-07T07:49:20.949Z,38.86
2022-10-07T07:51:50.487Z,38.60
2022-10-07T07:54:17.404Z,38.13
2022-10-07T07:56:44.879Z,39.15
2022-10-07T07:59:11.969Z,38.49
2022-10-07T08:01:39.068Z,38.17
2022-10-07T08:04:06.018Z,38.80
2022-10-07T08:06:34.559Z,37.18
2022-10-07T08:09:08.595Z,36.76
2022-10-07T08:11:35.609Z,37.20
2022-10-07T08:14:03.332Z,37.95
2022-10-07T08:16:30.403Z,37.94
2022-10-07T08:18:58.153Z,40.02
2022-10-07T08:21:35.733Z,39.59
2022-10-07T08:24:05.296Z,37.44
2022-10-07T08:26:35.133Z,37.58
2022-10-07T08:29:08.187Z,35.78
2022-10-07T08:31:35.682Z,34.33
2022-10-07T08:34:04.965Z,33.78
2022-10-07T08:36:33.414Z,32.34
2022-10-07T08:39:01.623Z,34.43
2022-10-07T08:41:37.496Z,33.14
2022-10-07T08:44:35.954Z,33.14
2022-10-07T08:47:20.281Z,33.95
2022-10-07T08:50:18.128Z,35.89
2022-10-07T08:53:03.146Z,36.76
2022-10-07T08:55:40.957Z,33.96
2022-10-07T08:58:44.046Z,34.65
2022-10-07T09:01:56.295Z,36.07
2022-10-07T09:04:35.024Z,35.81
2022-10-07T09:07:18.804Z,36.71
2022-10-07T09:10:09.663Z,33.78
2022-10-07T09:12:54.109Z,32.68
2022-10-07T09:15:49.914Z,33.21
2022-10-07T09:18:26.949Z,32.38
2022-10-07T09:20:56.932Z,32.17
2022-10-07T09:23:33.812Z,32.06
2022-10-07T09:26:00.913Z,33.67
2022-10-07T09:28:36.963Z,32.19
2022-10-07T09:31:07.306Z,31.72
2022-10-07T09:33:42.608Z,31.42
2022-10-07T09:36:19.055Z,33.98
2022-10-07T09:38:59.002Z,32.21
2022-10-07T09:41:35.297Z,32.98
2022-10-07T09:44:15.860Z,32.01
2022-10-07T09:46:48.884Z,31.64
2022-10-07T09:49:27.998Z,28.91
2022-10-07T09:52:06.419Z,31.02
2022-10-07T09:54:39.190Z,29.15
2022-10-07T09:57:30.000Z,28.62
2022-10-07T10:00:27.347Z,29.83
2022-10-07T10:03:07.467Z,29.26
2022-10-07T10:05:38.101Z,30.37
2022-10-07T10:08:10.637Z,29.46
2022-10-07T10:10:37.772Z,32.87
2022-10-07T10:13:07.261Z,35.22
2022-10-07T10:15:46.269Z,31.27
2022-10-07T10:18:32.073Z,30.37
2022-10-07T10:21:29.833Z,31.22
2022-10-07T10:24:06.059Z,28.58
2022-10-07T10:26:36.245Z,26.38
2022-10-07T10:29:09.436Z,25.39
2022-10-07T10:32:01.328Z,25.09
2022-10-07T10:35:25.183Z,24.37
2022-10-07T10:38:25.921Z,24.36
2022-10-07T10:41:03.018Z,25.17
2022-10-07T10:44:10.255Z,25.84
2022-10-07T10:46:55.061Z,25.72
2022-10-07T10:49:54.378Z,25.07
2022-10-07T10:52:46.132Z,27.59
2022-10-07T10:55:37.435Z,30.26
2022-10-07T10:58:22.033Z,28.78
2022-10-07T11:01:09.715Z,28.29
2022-10-07T11:04:15.032Z,26.25
2022-10-07T11:07:11.947Z,22.86
2022-10-07T11:10:18.371Z,22.52
2022-10-07T11:12:55.821Z,24.50
2022-10-07T11:15:31.460Z,28.83
2022-10-07T11:18:06.662Z,30.21
2022-10-07T11:20:48.069Z,33.31
2022-10-07T11:23:53.638Z,33.00
2022-10-07T11:26:39.299Z,29.04
2022-10-07T11:29:38.677Z,26.02
2022-10-07T11:32:15.534Z,24.71
2022-10-07T11:35:15.532Z,24.74
2022-10-07T11:38:14.873Z,23.84
2022-10-07T11:41:24.044Z,22.59
2022-10-07T11:43:58.219Z,21.77
2022-10-07T11:46:39.676Z,21.82
2022-10-07T11:49:19.928Z,19.95
2022-10-07T11:52:24.297Z,20.04
2022-10-07T11:55:23.738Z,21.33
2022-10-07T11:57:56.376Z,25.15
2022-10-07T12:00:34.541Z,28.34
2022-10-07T12:03:36.435Z,30.82
2022-10-07T12:06:12.177Z,33.30
2022-10-07T12:08:44.388Z,36.78
2022-10-07T12:11:16.985Z,41.18
2022-10-07T12:13:49.641Z,39.19
2022-10-07T12:16:30.273Z,36.46
2022-10-07T12:19:12.890Z,34.45
2022-10-07T12:22:02.987Z,31.23
2022-10-07T12:24:46.720Z,27.82
2022-10-07T12:27:17.324Z,28.09
2022-10-07T12:29:58.885Z,26.67
2022-10-07T12:32:51.739Z,28.98
2022-10-07T12:35:34.696Z,28.81
2022-10-07T12:38:10.709Z,28.58
2022-10-07T12:40:41.036Z,27.38
2022-10-07T12:43:41.127Z,26.97
2022-10-07T12:46:15.377Z,26.51
2022-10-07T12:48:54.727Z,27.17
2022-10-07T12:51:41.050Z,25.81
2022-10-07T12:54:21.482Z,28.19
2022-10-07T12:56:49.093Z,27.87
2022-10-07T12:59:48.862Z,26.77
2022-10-07T13:02:43.555Z,28.83
2022-10-07T13:05:58.462Z,34.04
2022-10-07T13:09:14.566Z,32.42
2022-10-07T13:11:55.678Z,32.68
2022-10-07T13:14:59.765Z,34.25
2022-10-07T13:17:49.315Z,32.76
2022-10-07T13:20:36.018Z,31.66
2022-10-07T13:23:24.589Z,33.51
2022-10-07T13:25:57.011Z,31.58
2022-10-07T13:28:38.343Z,32.91
2022-10-07T13:31:27.936Z,32.58
2022-10-07T13:33:57.522Z,32.29
2022-10-07T13:36:33.013Z,32.90
2022-10-07T13:39:24.361Z,35.83
2022-10-07T13:41:55.359Z,35.55
2022-10-07T13:44:29.364Z,36.22
2022-10-07T13:47:06.380Z,36.85
2022-10-07T13:49:47.113Z,36.26
2022-10-07T13:52:22.093Z,36.73
2022-10-07T13:54:52.989Z,35.99
2022-10-07T13:57:23.589Z,34.61
2022-10-07T13:59:51.586Z,33.15
2022-10-07T14:02:20.403Z,34.37
2022-10-07T14:05:03.632Z,33.78
2022-10-07T14:07:31.195Z,33.06
2022-10-07T14:10:09.710Z,32.01
2022-10-07T14:13:07.242Z,33.04
2022-10-07T14:15:36.370Z,34.15
2022-10-07T14:18:11.218Z,35.15
2022-10-07T14:21:19.852Z,36.13
2022-10-07T14:23:49.458Z,38.55
2022-10-07T14:26:17.670Z,37.92
2022-10-07T14:28:46.321Z,38.95
2022-10-07T14:31:39.141Z,38.32
2022-10-07T14:34:39.554Z,37.30
2022-10-07T14:37:10.526Z,38.16
2022-10-07T14:39:42.411Z,40.72
2022-10-07T14:42:17.924Z,41.08
2022-10-07T14:44:45.085Z,39.15
2022-10-07T14:47:21.553Z,39.58
2022-10-07T14:49:48.951Z,39.58
2022-10-07T14:52:28.692Z,39.65
2022-10-07T14:54:58.477Z,40.14
2022-10-07T14:57:27.627Z,39.58
2022-10-07T14:59:57.030Z,40.20
2022-10-07T15:02:27.392Z,40.24
2022-10-07T15:04:56.549Z,39.87
2022-10-07T15:07:27.895Z,40.59
2022-10-07T15:09:54.712Z,41.90
2022-10-07T15:12:23.604Z,42.97
2022-10-07T15:14:50.525Z,42.72
2022-10-07T15:17:17.594Z,43.43
2022-10-07T15:19:44.669Z,43.59
2022-10-07T15:22:11.461Z,44.61
2022-10-07T15:24:38.615Z,44.41
2022-10-07T15:27:07.120Z,45.31
2022-10-07T15:29:33.989Z,45.78
2022-10-07T15:32:00.777Z,45.90
2022-10-07T15:34:27.602Z,46.76
2022-10-07T15:36:54.430Z,47.60
2022-10-07T15:39:24.196Z,48.06
2022-10-07T15:41:50.983Z,48.53
2022-10-07T15:44:22.023Z,48.82
2022-10-07T15:46:55.555Z,49.07
2022-10-07T15:49:22.329Z,48.94
2022-10-07T15:51:49.147Z,48.61
2022-10-07T15:54:16.595Z,48.90
2022-10-07T15:56:50.186Z,48.63
2022-10-07T15:59:17.053Z,48.78
2022-10-07T16:01:44.246Z,49.18
2022-10-07T16:04:13.133Z,50.28
2022-10-07T16:06:49.515Z,50.63
2022-10-07T16:09:18.852Z,51.63
2022-10-07T16:11:46.460Z,51.94
2022-10-07T16:14:16.012Z,52.19
2022-10-07T16:16:46.153Z,53.00
2022-10-07T16:19:13.076Z,53.91
2022-10-07T16:21:42.439Z,53.96
2022-10-07T16:24:18.079Z,54.01
2022-10-07T16:26:47.007Z,54.79
2022-10-07T16:29:37.939Z,55.02
2022-10-07T16:32:11.109Z,54.55
2022-10-07T16:34:41.903Z,54.51
2022-10-07T16:37:08.908Z,55.25
2022-10-07T16:39:35.716Z,55.41
2022-10-07T16:42:02.702Z,56.21
2022-10-07T16:44:29.629Z,56.65
2022-10-07T16:46:57.761Z,56.73
2022-10-07T16:49:27.378Z,57.04
2022-10-07T16:51:57.026Z,57.03
2022-10-07T16:54:29.724Z,57.18
2022-10-07T16:56:58.879Z,58.16
2022-10-07T16:59:26.228Z,59.52
2022-10-07T17:01:55.929Z,59.49
2022-10-07T17:04:24.875Z,58.93
2022-10-07T17:06:53.239Z,59.84
2022-10-07T17:09:21.781Z,59.00
2022-10-07T17:11:51.805Z,60.34
2022-10-07T17:14:20.631Z,60.02
2022-10-07T17:16:55.142Z,60.24
2022-10-07T17:19:27.904Z,61.00
2022-10-07T17:21:56.480Z,61.22
2022-10-07T17:24:24.042Z,61.09
2022-10-07T17:26:53.911Z,62.20
2022-10-07T17:29:26.033Z,61.82
2022-10-07T17:31:53.257Z,61.74
2022-10-07T17:34:36.713Z,61.96
2022-10-07T17:37:03.616Z,61.99
2022-10-07T17:39:31.146Z,62.21
2022-10-07T17:41:58.157Z,62.81
2022-10-07T17:44:27.495Z,63.21
2022-10-07T17:46:58.964Z,62.96
2022-10-07T17:49:26.706Z,63.20
2022-10-07T17:51:55.182Z,63.44
2022-10-07T17:54:23.311Z,64.75
2022-10-07T17:56:50.259Z,64.54
2022-10-07T17:59:17.291Z,64.96
2022-10-07T18:01:45.157Z,65.57
2022-10-07T18:04:22.546Z,65.67
2022-10-07T18:06:54.470Z,65.96
2022-10-07T18:09:24.253Z,65.66
2022-10-07T18:12:09.879Z,65.78
2022-10-07T18:15:05.358Z,65.26
2022-10-07T18:17:36.777Z,66.46
2022-10-07T18:20:07.834Z,66.45
2022-10-07T18:22:36.189Z,66.68
2022-10-07T18:25:04.115Z,67.13
2022-10-07T18:27:31.355Z,66.50
2022-10-07T18:29:58.278Z,68.06
2022-10-07T18:32:25.622Z,68.26
2022-10-07T18:34:52.576Z,67.92
2022-10-07T18:37:22.933Z,69.41
2022-10-07T18:39:52.816Z,68.82
2022-10-07T18:42:24.938Z,69.00
2022-10-07T18:44:52.324Z,69.39
2022-10-07T18:47:19.427Z,69.29
2022-10-07T18:49:46.283Z,69.85
2022-10-07T18:52:16.205Z,69.49
2022-10-07T18:54:43.049Z,69.70
2022-10-07T18:57:09.970Z,70.06
2022-10-07T18:59:36.842Z,70.07
2022-10-07T19:02:07.301Z,70.68
2022-10-07T19:04:34.574Z,70.90
2022-10-07T19:07:01.923Z,71.75
2022-10-07T19:09:29.083Z,71.15
2022-10-07T19:11:55.905Z,71.52
2022-10-07T19:14:25.934Z,71.35
2022-10-07T19:16:55.378Z,71.94
2022-10-07T19:19:24.171Z,72.06
2022-10-07T19:21:57.029Z,72.62
2022-10-07T19:24:43.993Z,72.16
2022-10-07T19:27:11.243Z,72.34
2022-10-07T19:29:38.193Z,73.29
2022-10-07T19:32:08.620Z,72.97
2022-10-07T19:34:35.987Z,73.83
2022-10-07T19:37:03.314Z,74.09
2022-10-07T19:39:30.133Z,74.40
2022-10-07T19:41:57.441Z,74.41
2022-10-07T19:44:24.531Z,74.50
2022-10-07T19:46:55.302Z,74.60
2022-10-07T19:49:22.300Z,74.03
2022-10-07T19:51:58.325Z,74.93
2022-10-07T19:54:28.338Z,74.99
2022-10-07T19:56:55.193Z,75.20
2022-10-07T19:59:22.143Z,75.03
2022-10-07T20:01:55.730Z,74.78
2022-10-07T20:04:25.758Z,74.69
2022-10-07T20:06:52.764Z,74.28
2022-10-07T20:09:20.121Z,74.11
2022-10-07T20:11:47.303Z,76.06
2022-10-07T20:14:15.181Z,75.68
2022-10-07T20:16:42.746Z,75.71
2022-10-07T20:19:15.871Z,76.62
2022-10-07T20:21:48.929Z,76.99
2022-10-07T20:24:16.750Z,77.14
2022-10-07T20:26:47.294Z,77.72
2022-10-07T20:29:16.258Z,77.17
2022-10-07T20:31:45.807Z,78.53
2022-10-07T20:34:16.249Z,77.67
2022-10-07T20:36:43.613Z,78.37
2022-10-07T20:39:38.504Z,78.42
2022-10-07T20:42:21.881Z,78.07
2022-10-07T20:44:50.172Z,78.12
2022-10-07T20:47:21.513Z,78.34
2022-10-07T20:49:50.823Z,77.50
2022-10-07T20:52:32.176Z,78.95
2022-10-07T20:55:01.598Z,79.10
2022-10-07T20:57:38.204Z,79.74
2022-10-07T21:00:10.360Z,80.23
2022-10-07T21:02:45.669Z,79.46
2022-10-07T21:05:13.643Z,80.97
2022-10-07T21:07:40.502Z,81.37
2022-10-07T21:10:07.553Z,80.98
2022-10-07T21:12:37.867Z,80.51
2022-10-07T21:15:11.699Z,80.93
2022-10-07T21:17:40.643Z,80.47
2022-10-07T21:20:07.906Z,82.30
2022-10-07T21:22:36.300Z,81.31
2022-10-07T21:25:03.407Z,80.71
2022-10-07T21:27:30.217Z,81.98
2022-10-07T21:30:00.386Z,81.56
2022-10-07T21:32:28.084Z,82.12
2022-10-07T21:34:56.801Z,80.75
2022-10-07T21:37:23.778Z,80.71
2022-10-07T21:39:50.597Z,79.85
2022-10-07T21:42:17.430Z,79.75
2022-10-07T21:44:44.335Z,78.83
2022-10-07T21:47:13.509Z,79.46
2022-10-07T21:49:41.096Z,79.59
2022-10-07T21:52:08.090Z,81.25
2022-10-07T21:54:38.380Z,80.51
2022-10-07T21:57:05.210Z,80.93
2022-10-07T21:59:35.178Z,80.52
2022-10-07T22:02:05.132Z,81.11
2022-10-07T22:04:35.375Z,80.54
2022-10-07T22:07:20.656Z,81.39
2022-10-07T22:09:49.851Z,81.43
2022-10-07T22:12:16.788Z,80.97
2022-10-07T22:14:45.700Z,80.51
2022-10-07T22:17:14.295Z,81.02
2022-10-07T22:19:43.827Z,80.72
2022-10-07T22:22:11.629Z,81.96
2022-10-07T22:24:40.741Z,81.58
2022-10-07T22:27:10.689Z,80.83
2022-10-07T22:29:38.450Z,81.54
2022-10-07T22:32:07.825Z,81.81
2022-10-07T22:34:53.035Z,82.10
2022-10-07T22:37:19.951Z,81.79
2022-10-07T22:39:49.830Z,81.85
2022-10-07T22:42:19.763Z,82.19
2022-10-07T22:44:51.196Z,82.24
2022-10-07T22:47:18.021Z,81.91
2022-10-07T22:49:44.861Z,81.88
2022-10-07T22:52:11.737Z,81.10
2022-10-07T22:54:38.573Z,81.31
2022-10-07T22:57:07.495Z,81.44
2022-10-07T22:59:34.316Z,82.43
2022-10-07T23:02:02.623Z,81.31
2022-10-07T23:04:29.468Z,81.87
2022-10-07T23:06:56.536Z,82.10
2022-10-07T23:09:26.436Z,80.81
2022-10-07T23:11:53.361Z,81.76
2022-10-07T23:14:22.760Z,81.59
2022-10-07T23:16:49.934Z,80.80
2022-10-07T23:19:17.079Z,80.23
2022-10-07T23:21:47.100Z,80.11
2022-10-07T23:24:14.423Z,80.67
2022-10-07T23:26:46.102Z,79.65
2022-10-07T23:29:13.859Z,80.28
2022-10-07T23:31:51.025Z,80.55
2022-10-07T23:34:18.739Z,81.08
2022-10-07T23:36:48.676Z,80.56
2022-10-07T23:39:15.686Z,79.87
2022-10-07T23:41:42.649Z,79.65
2022-10-07T23:44:09.651Z,80.53
2022-10-07T23:46:38.048Z,80.15
2022-10-07T23:49:06.032Z,78.71
2022-10-07T23:51:38.140Z,79.31
2022-10-07T23:54:05.574Z,79.31
2022-10-07T23:56:37.181Z,79.54
2022-10-07T23:59:08.848Z,79.56
